createdAt,value
2017-08-20T00:02:11.645Z,17.90
2017-08-20T00:04:45.146Z,17.90
2017-08-20T00:07:19.047Z,17.90
2017-08-20T00:09:52.657Z,17.90
2017-08-20T00:12:26.149Z,18.00
2017-08-20T00:14:59.758Z,18.00
2017-08-20T00:17:33.453Z,17.90
2017-08-20T00:20:07.152Z,17.90
2017-08-20T00:22:40.734Z,17.80
2017-08-20T00:25:14.460Z,17.80
2017-08-20T00:27:48.163Z,17.80
2017-08-20T00:30:21.763Z,17.90
2017-08-20T00:32:55.789Z,17.90
2017-08-20T00:35:29.362Z,17.80
2017-08-20T00:38:03.055Z,17.80
2017-08-20T00:40:36.982Z,17.80
2017-08-20T00:43:10.777Z,17.80
2017-08-20T00:45:44.395Z,17.70
2017-08-20T00:48:17.963Z,17.70
2017-08-20T00:50:51.605Z,17.60
2017-08-20T00:53:25.316Z,17.70
2017-08-20T00:55:58.992Z,17.70
2017-08-20T00:58:32.602Z,17.80
2017-08-20T01:01:06.879Z,17.70
2017-08-20T01:03:40.517Z,17.70
2017-08-20T01:06:15.698Z,17.70
2017-08-20T01:08:50.983Z,17.70
2017-08-20T01:11:24.599Z,17.70
2017-08-20T01:13:58.187Z,17.70
2017-08-20T01:16:31.903Z,17.80
2017-08-20T01:19:05.676Z,17.80
2017-08-20T01:21:39.404Z,17.80
2017-08-20T01:24:13.008Z,17.80
2017-08-20T01:26:47.383Z,17.90
2017-08-20T01:29:21.026Z,17.80
2017-08-20T01:31:54.756Z,17.80
2017-08-20T01:34:29.017Z,17.80
2017-08-20T01:37:02.655Z,17.80
2017-08-20T01:39:36.403Z,17.70
2017-08-20T01:42:10.063Z,17.50
2017-08-20T01:44:43.694Z,17.50
2017-08-20T01:47:18.279Z,17.60
2017-08-20T01:49:52.459Z,17.60
2017-08-20T01:52:26.098Z,17.50
2017-08-20T01:54:59.699Z,17.60
2017-08-20T01:57:34.121Z,17.60
2017-08-20T02:00:07.720Z,17.60
2017-08-20T02:02:41.382Z,17.60
2017-08-20T02:05:14.970Z,17.50
2017-08-20T02:07:48.716Z,17.60
2017-08-20T02:10:22.429Z,17.50
2017-08-20T02:12:56.034Z,17.50
2017-08-20T02:15:30.347Z,17.50
2017-08-20T02:18:03.948Z,17.50
2017-08-20T02:20:37.552Z,17.40
2017-08-20T02:23:11.255Z,17.40
2017-08-20T02:25:44.828Z,17.40
2017-08-20T02:28:19.025Z,17.40
2017-08-20T02:30:52.562Z,17.30
2017-08-20T02:33:27.040Z,17.40
2017-08-20T02:36:00.796Z,17.40
2017-08-20T02:38:34.699Z,17.40
2017-08-20T02:41:08.400Z,17.40
2017-08-20T02:43:41.997Z,17.50
2017-08-20T02:46:15.496Z,17.40
2017-08-20T02:48:49.051Z,17.30
2017-08-20T02:51:22.796Z,17.30
2017-08-20T02:53:56.452Z,17.30
2017-08-20T02:56:30.827Z,17.20
2017-08-20T02:59:05.547Z,17.20
2017-08-20T03:01:39.242Z,17.20
2017-08-20T03:04:14.201Z,17.20
2017-08-20T03:06:47.883Z,17.30
2017-08-20T03:09:21.440Z,17.20
2017-08-20T03:11:55.098Z,17.20
2017-08-20T03:14:28.709Z,17.20
2017-08-20T03:17:02.374Z,17.20
2017-08-20T03:19:36.007Z,17.20
2017-08-20T03:22:10.521Z,17.10
2017-08-20T03:24:44.261Z,17.20
2017-08-20T03:27:18.140Z,17.10
2017-08-20T03:29:51.947Z,17.10
2017-08-20T03:32:25.548Z,17.10
2017-08-20T03:34:59.888Z,17.00
2017-08-20T03:37:33.767Z,17.00
2017-08-20T03:40:07.366Z,17.00
2017-08-20T03:42:40.965Z,17.00
2017-08-20T03:45:14.523Z,16.90
2017-08-20T03:47:48.274Z,16.90
2017-08-20T03:50:21.866Z,16.90
2017-08-20T03:52:55.480Z,16.90
2017-08-20T03:55:29.173Z,16.90
2017-08-20T03:58:03.390Z,16.90
2017-08-20T04:00:37.152Z,16.90
2017-08-20T04:03:10.996Z,16.90
2017-08-20T04:05:44.701Z,16.90
2017-08-20T04:08:18.302Z,16.90
2017-08-20T04:10:52.108Z,16.90
2017-08-20T04:13:25.909Z,16.90
2017-08-20T04:15:59.612Z,16.80
2017-08-20T04:18:33.181Z,16.80
2017-08-20T04:21:06.766Z,16.70
2017-08-20T04:23:40.415Z,16.80
2017-08-20T04:26:14.530Z,16.80
2017-08-20T04:28:48.128Z,16.80
2017-08-20T04:31:21.727Z,16.80
2017-08-20T04:33:56.256Z,16.80
2017-08-20T04:36:30.527Z,16.90
2017-08-20T04:39:04.027Z,16.90
2017-08-20T04:41:37.777Z,16.90
2017-08-20T04:44:11.478Z,17.00
2017-08-20T04:46:45.184Z,17.00
2017-08-20T04:49:18.780Z,17.00
2017-08-20T04:51:52.340Z,17.10
2017-08-20T04:54:26.068Z,17.10
2017-08-20T04:56:59.666Z,17.10
2017-08-20T04:59:33.285Z,17.10
2017-08-20T05:02:06.767Z,17.10
2017-08-20T05:04:41.001Z,17.20
2017-08-20T05:07:15.516Z,17.20
2017-08-20T05:09:49.233Z,17.20
2017-08-20T05:12:23.030Z,17.20
2017-08-20T05:14:56.590Z,17.30
2017-08-20T05:17:30.221Z,17.20
2017-08-20T05:20:03.922Z,17.20
2017-08-20T05:22:37.674Z,17.20
2017-08-20T05:25:11.549Z,17.20
2017-08-20T05:27:45.344Z,17.20
2017-08-20T05:30:19.155Z,17.30
2017-08-20T05:32:52.860Z,17.30
2017-08-20T05:35:26.664Z,17.30
2017-08-20T05:38:00.268Z,17.30
2017-08-20T05:40:34.789Z,17.40
2017-08-20T05:43:08.693Z,17.30
2017-08-20T05:45:42.198Z,17.30
2017-08-20T05:48:16.616Z,17.30
2017-08-20T05:50:50.320Z,17.30
2017-08-20T05:53:23.868Z,17.40
2017-08-20T05:55:57.518Z,17.40
2017-08-20T05:58:31.110Z,17.40
2017-08-20T06:01:04.610Z,17.50
2017-08-20T06:03:38.109Z,17.50
2017-08-20T06:06:11.675Z,17.50
2017-08-20T06:08:45.314Z,17.60
2017-08-20T06:11:18.907Z,17.50
2017-08-20T06:13:52.516Z,17.60
2017-08-20T06:16:26.218Z,17.60
2017-08-20T06:18:59.919Z,17.60
2017-08-20T06:21:34.964Z,17.70
2017-08-20T06:24:10.092Z,17.60
2017-08-20T06:26:43.686Z,17.60
2017-08-20T06:29:17.304Z,17.60
2017-08-20T06:31:50.990Z,17.60
2017-08-20T06:34:24.702Z,17.60
2017-08-20T06:36:58.396Z,17.60
2017-08-20T06:39:32.007Z,17.60
2017-08-20T06:42:05.703Z,17.70
2017-08-20T06:44:40.150Z,17.80
2017-08-20T06:47:13.932Z,17.80
2017-08-20T06:49:47.632Z,17.80
2017-08-20T06:52:21.328Z,17.70
2017-08-20T06:54:55.701Z,17.80
2017-08-20T06:57:29.663Z,17.70
2017-08-20T07:00:03.207Z,17.80
2017-08-20T07:02:37.068Z,17.80
2017-08-20T07:05:10.514Z,17.80
2017-08-20T07:07:44.352Z,17.90
2017-08-20T07:10:17.974Z,17.90
2017-08-20T07:12:51.677Z,17.90
2017-08-20T07:15:25.645Z,17.90
2017-08-20T07:17:59.190Z,18.00
2017-08-20T07:20:32.762Z,18.00
2017-08-20T07:23:06.487Z,18.00
2017-08-20T07:25:39.997Z,18.10
2017-08-20T07:28:15.049Z,18.10
2017-08-20T07:30:49.444Z,18.20
2017-08-20T07:33:23.053Z,18.20
2017-08-20T07:35:56.868Z,18.20
2017-08-20T07:38:30.556Z,18.20
2017-08-20T07:41:04.254Z,18.30
2017-08-20T07:43:37.963Z,18.30
2017-08-20T07:46:11.872Z,18.40
2017-08-20T07:48:45.473Z,18.40
2017-08-20T07:51:18.927Z,18.40
2017-08-20T07:53:53.488Z,18.40
2017-08-20T07:56:27.078Z,18.40
2017-08-20T07:59:00.685Z,18.30
2017-08-20T08:01:34.286Z,18.30
2017-08-20T08:04:07.904Z,18.40
2017-08-20T08:06:41.492Z,18.40
2017-08-20T08:09:15.257Z,18.40
2017-08-20T08:11:49.042Z,18.50
2017-08-20T08:14:22.665Z,18.40
2017-08-20T08:16:56.508Z,18.40
2017-08-20T08:19:30.318Z,18.40
2017-08-20T08:22:04.119Z,18.40
2017-08-20T08:24:37.933Z,18.50
2017-08-20T08:27:11.815Z,18.40
2017-08-20T08:29:46.318Z,18.50
2017-08-20T08:32:19.855Z,18.50
2017-08-20T08:34:53.543Z,18.60
2017-08-20T08:37:27.051Z,18.70
2017-08-20T08:40:00.762Z,18.80
2017-08-20T08:42:35.154Z,18.80
2017-08-20T08:45:08.885Z,18.90
2017-08-20T08:47:43.297Z,18.90
2017-08-20T08:50:16.798Z,18.90
2017-08-20T08:52:50.964Z,18.90
2017-08-20T08:55:24.610Z,19.00
2017-08-20T08:57:58.936Z,19.00
2017-08-20T09:00:32.626Z,19.00
2017-08-20T09:03:06.124Z,19.00
2017-08-20T09:05:39.679Z,19.10
2017-08-20T09:08:13.237Z,19.10
2017-08-20T09:10:46.726Z,19.20
2017-08-20T09:13:20.806Z,19.20
2017-08-20T09:15:54.412Z,19.20
2017-08-20T09:18:28.038Z,19.20
2017-08-20T09:21:01.541Z,19.30
2017-08-20T09:23:35.090Z,19.30
2017-08-20T09:26:09.354Z,19.30
2017-08-20T09:28:43.630Z,19.20
2017-08-20T09:31:17.179Z,19.20
2017-08-20T09:33:50.776Z,19.20
2017-08-20T09:36:24.577Z,19.20
2017-08-20T09:38:58.066Z,19.20
2017-08-20T09:41:31.670Z,19.30
2017-08-20T09:44:06.811Z,19.40
2017-08-20T09:46:40.416Z,19.40
2017-08-20T09:49:14.006Z,19.40
2017-08-20T09:51:48.054Z,19.40
2017-08-20T09:54:21.807Z,19.40
2017-08-20T09:56:55.504Z,19.50
2017-08-20T09:59:29.339Z,19.50
2017-08-20T10:02:03.231Z,19.50
2017-08-20T10:04:36.943Z,19.60
2017-08-20T10:07:10.962Z,19.60
2017-08-20T10:09:45.381Z,19.60
2017-08-20T10:12:18.968Z,19.60
2017-08-20T10:14:52.582Z,19.60
2017-08-20T10:17:26.274Z,19.70
2017-08-20T10:19:59.989Z,19.70
2017-08-20T10:22:34.203Z,19.70
2017-08-20T10:25:07.776Z,19.70
2017-08-20T10:27:42.287Z,19.70
2017-08-20T10:30:16.024Z,19.70
2017-08-20T10:32:49.611Z,19.70
2017-08-20T10:35:23.530Z,19.80
2017-08-20T10:37:57.137Z,19.90
2017-08-20T10:40:31.246Z,19.90
2017-08-20T10:43:04.860Z,19.90
2017-08-20T10:45:38.454Z,19.90
2017-08-20T10:48:12.263Z,19.90
2017-08-20T10:50:45.860Z,19.90
2017-08-20T10:53:19.564Z,20.00
2017-08-20T10:55:53.271Z,20.00
2017-08-20T10:58:27.995Z,19.90
2017-08-20T11:01:01.596Z,19.90
2017-08-20T11:03:35.297Z,19.90
2017-08-20T11:06:08.896Z,19.90
2017-08-20T11:08:42.586Z,20.00
2017-08-20T11:11:16.201Z,20.10
2017-08-20T11:13:49.804Z,20.20
2017-08-20T11:16:23.399Z,20.20
2017-08-20T11:18:56.864Z,20.20
2017-08-20T11:21:30.498Z,20.30
2017-08-20T11:24:04.205Z,20.40
2017-08-20T11:26:37.697Z,20.40
2017-08-20T11:29:12.127Z,20.40
2017-08-20T11:31:45.825Z,20.40
2017-08-20T11:34:19.323Z,20.50
2017-08-20T11:36:52.817Z,20.50
2017-08-20T11:39:26.345Z,20.50
2017-08-20T11:42:00.021Z,20.60
2017-08-20T11:44:33.724Z,20.60
2017-08-20T11:47:07.845Z,20.50
2017-08-20T11:49:41.432Z,20.40
2017-08-20T11:52:15.754Z,20.20
2017-08-20T11:54:49.344Z,20.20
2017-08-20T11:57:22.891Z,20.20
2017-08-20T11:59:57.157Z,20.10
2017-08-20T12:02:30.768Z,20.10
2017-08-20T12:05:04.352Z,20.10
2017-08-20T12:07:37.874Z,20.10
2017-08-20T12:10:11.463Z,20.10
2017-08-20T12:12:45.071Z,20.10
2017-08-20T12:15:20.099Z,20.40
2017-08-20T12:17:53.654Z,20.40
2017-08-20T12:20:27.216Z,20.50
2017-08-20T12:23:00.853Z,20.50
2017-08-20T12:25:34.479Z,20.60
2017-08-20T12:28:08.214Z,20.60
2017-08-20T12:30:41.814Z,20.60
2017-08-20T12:33:15.502Z,20.50
2017-08-20T12:35:49.123Z,20.60
2017-08-20T12:38:22.614Z,20.50
2017-08-20T12:40:57.142Z,20.40
2017-08-20T12:43:30.692Z,20.40
2017-08-20T12:46:04.398Z,20.50
2017-08-20T12:48:38.753Z,20.60
2017-08-20T12:51:12.376Z,20.60
2017-08-20T12:53:46.848Z,20.70
2017-08-20T12:56:20.383Z,20.70
2017-08-20T12:58:53.982Z,20.70
2017-08-20T13:01:27.480Z,20.70
2017-08-20T13:04:01.859Z,20.60
2017-08-20T13:06:35.456Z,20.60
2017-08-20T13:09:08.983Z,20.50
2017-08-20T13:11:42.598Z,20.40
2017-08-20T13:14:16.200Z,20.40
2017-08-20T13:16:49.798Z,20.50
2017-08-20T13:19:23.398Z,20.50
2017-08-20T13:21:57.101Z,20.40
2017-08-20T13:24:30.679Z,20.40
2017-08-20T13:27:04.410Z,20.30
2017-08-20T13:29:38.581Z,20.30
2017-08-20T13:32:12.219Z,20.20
2017-08-20T13:34:45.722Z,20.20
2017-08-20T13:37:19.205Z,20.10
2017-08-20T13:39:52.764Z,20.20
2017-08-20T13:42:26.411Z,20.20
2017-08-20T13:45:00.027Z,20.20
2017-08-20T13:47:33.784Z,20.10
2017-08-20T13:50:07.416Z,20.10
2017-08-20T13:52:41.081Z,20.10
2017-08-20T13:55:15.962Z,20.10
2017-08-20T13:57:49.657Z,20.10
2017-08-20T14:00:23.216Z,20.10
2017-08-20T14:02:56.865Z,20.10
2017-08-20T14:05:30.890Z,20.10
2017-08-20T14:08:04.450Z,20.10
2017-08-20T14:10:38.048Z,20.10
2017-08-20T14:13:11.807Z,20.10
2017-08-20T14:15:46.389Z,20.10
2017-08-20T14:18:19.994Z,20.10
2017-08-20T14:20:53.490Z,20.20
2017-08-20T14:23:27.613Z,20.20
2017-08-20T14:26:01.311Z,20.20
2017-08-20T14:28:35.006Z,20.20
2017-08-20T14:31:08.619Z,20.20
2017-08-20T14:33:42.215Z,20.20
2017-08-20T14:36:15.930Z,20.20
2017-08-20T14:38:49.518Z,20.30
2017-08-20T14:41:23.331Z,20.20
2017-08-20T14:43:57.007Z,20.30
2017-08-20T14:49:28.182Z,20.30
2017-08-20T14:52:01.789Z,20.30
2017-08-20T14:54:35.506Z,20.20
2017-08-20T14:57:09.166Z,20.30
2017-08-20T14:59:42.786Z,20.30
2017-08-20T15:02:16.314Z,20.20
2017-08-20T15:04:49.906Z,20.20
2017-08-20T15:07:23.911Z,20.20
2017-08-20T15:09:57.774Z,20.20
2017-08-20T15:12:31.512Z,20.20
2017-08-20T15:15:05.315Z,20.20
2017-08-20T15:17:39.023Z,20.20
2017-08-20T15:20:12.622Z,20.20
2017-08-20T15:22:46.887Z,20.20
2017-08-20T15:25:21.156Z,20.20
2017-08-20T15:27:54.855Z,20.20
2017-08-20T15:30:28.571Z,20.10
2017-08-20T15:33:03.146Z,20.10
2017-08-20T15:35:37.510Z,20.10
2017-08-20T15:38:11.319Z,20.10
2017-08-20T15:40:44.919Z,20.10
2017-08-20T15:43:18.578Z,20.10
2017-08-20T15:45:52.115Z,20.10
2017-08-20T15:48:25.711Z,20.20
2017-08-20T15:51:00.359Z,20.20
2017-08-20T15:53:34.145Z,20.20
2017-08-20T15:56:07.738Z,20.20
2017-08-20T15:58:41.448Z,20.20
2017-08-20T16:01:15.251Z,20.20
2017-08-20T16:03:48.978Z,20.20
2017-08-20T16:06:23.478Z,20.10
2017-08-20T16:08:57.276Z,20.10
2017-08-20T16:11:30.878Z,20.00
2017-08-20T16:14:04.482Z,20.00
2017-08-20T16:16:38.093Z,20.00
2017-08-20T16:19:11.785Z,20.00
2017-08-20T16:21:45.374Z,20.00
2017-08-20T16:24:18.932Z,19.90
2017-08-20T16:26:52.582Z,19.90
2017-08-20T16:29:26.186Z,19.90
2017-08-20T16:31:59.788Z,19.90
2017-08-20T16:34:33.356Z,19.90
2017-08-20T16:37:07.146Z,19.80
2017-08-20T16:39:40.896Z,19.80
2017-08-20T16:42:14.604Z,19.80
2017-08-20T16:44:48.201Z,19.80
2017-08-20T16:47:21.802Z,19.80
2017-08-20T16:49:55.283Z,19.80
2017-08-20T16:52:29.199Z,19.80
2017-08-20T16:55:02.782Z,19.80
2017-08-20T16:57:36.410Z,19.80
2017-08-20T17:00:10.110Z,19.80
2017-08-20T17:02:43.606Z,19.80
2017-08-20T17:05:17.314Z,19.70
2017-08-20T17:07:50.811Z,19.80
2017-08-20T17:10:24.438Z,19.70
2017-08-20T17:12:57.966Z,19.70
2017-08-20T17:15:31.918Z,19.80
2017-08-20T17:18:05.686Z,19.70
2017-08-20T17:20:39.326Z,19.70
2017-08-20T17:23:12.882Z,19.80
2017-08-20T17:25:46.426Z,19.70
2017-08-20T17:28:20.226Z,19.70
2017-08-20T17:30:53.934Z,19.70
2017-08-20T17:33:27.624Z,19.70
2017-08-20T17:36:01.306Z,19.70
2017-08-20T17:38:34.946Z,19.60
2017-08-20T17:41:08.488Z,19.60
2017-08-20T17:43:42.142Z,19.60
2017-08-20T17:46:16.675Z,19.60
2017-08-20T17:48:50.262Z,19.50
2017-08-20T17:51:23.762Z,19.50
2017-08-20T17:53:58.286Z,19.50
2017-08-20T17:56:31.879Z,19.50
2017-08-20T17:59:05.598Z,19.50
2017-08-20T18:01:39.303Z,19.50
2017-08-20T18:04:12.998Z,19.40
2017-08-20T18:06:46.450Z,19.40
2017-08-20T18:09:20.186Z,19.40
2017-08-20T18:11:54.510Z,19.30
2017-08-20T18:14:28.010Z,19.30
2017-08-20T18:17:01.620Z,19.30
2017-08-20T18:19:35.206Z,19.30
2017-08-20T18:22:08.711Z,19.30
2017-08-20T18:24:42.370Z,19.30
2017-08-20T18:27:16.014Z,19.20
2017-08-20T18:29:50.538Z,19.10
2017-08-20T18:32:24.034Z,19.10
2017-08-20T18:34:57.634Z,19.20
2017-08-20T18:37:31.126Z,19.00
2017-08-20T18:40:04.742Z,19.10
2017-08-20T18:42:39.258Z,19.00
2017-08-20T18:45:13.882Z,19.00
2017-08-20T18:47:47.582Z,18.90
2017-08-20T18:50:21.078Z,18.90
2017-08-20T18:52:55.701Z,18.90
2017-08-20T18:55:29.332Z,18.90
2017-08-20T18:58:03.790Z,18.90
2017-08-20T19:00:37.418Z,18.90
2017-08-20T19:03:11.161Z,18.80
2017-08-20T19:05:45.038Z,18.80
2017-08-20T19:08:19.359Z,18.70
2017-08-20T19:10:52.938Z,18.70
2017-08-20T19:13:26.828Z,18.60
2017-08-20T19:16:00.466Z,18.60
2017-08-20T19:18:34.365Z,18.60
2017-08-20T19:21:08.178Z,18.60
2017-08-20T19:23:41.787Z,18.60
2017-08-20T19:26:16.203Z,18.60
2017-08-20T19:28:50.306Z,18.60
2017-08-20T19:31:24.059Z,18.50
2017-08-20T19:33:57.827Z,18.50
2017-08-20T19:36:31.532Z,18.50
2017-08-20T19:39:05.231Z,18.50
2017-08-20T19:41:39.354Z,18.40
2017-08-20T19:44:13.868Z,18.50
2017-08-20T19:46:47.452Z,18.50
2017-08-20T19:49:21.457Z,18.50
2017-08-20T19:51:55.042Z,18.50
2017-08-20T19:54:28.680Z,18.40
2017-08-20T19:57:02.170Z,18.30
2017-08-20T19:59:36.647Z,18.30
2017-08-20T20:02:10.298Z,18.20
2017-08-20T20:04:44.107Z,18.30
2017-08-20T20:07:17.646Z,18.30
2017-08-20T20:09:51.298Z,18.40
2017-08-20T20:12:25.620Z,18.40
2017-08-20T20:15:00.038Z,18.40
2017-08-20T20:17:33.742Z,18.30
2017-08-20T20:20:08.266Z,18.30
2017-08-20T20:22:42.059Z,18.20
2017-08-20T20:25:15.674Z,18.20
2017-08-20T20:27:49.368Z,18.20
2017-08-20T20:30:23.193Z,18.20
2017-08-20T20:32:56.971Z,18.10
2017-08-20T20:35:30.586Z,18.10
2017-08-20T20:38:05.007Z,18.10
2017-08-20T20:40:38.817Z,18.10
2017-08-20T20:43:13.853Z,18.10
2017-08-20T20:45:47.381Z,18.10
2017-08-20T20:48:21.668Z,17.90
2017-08-20T20:50:56.218Z,17.90
2017-08-20T20:53:29.882Z,17.90
2017-08-20T20:56:04.206Z,18.00
2017-08-20T20:58:38.021Z,18.00
2017-08-20T21:01:12.535Z,18.00
2017-08-20T21:03:46.134Z,17.90
2017-08-20T21:06:20.350Z,17.90
2017-08-20T21:08:54.046Z,17.80
2017-08-20T21:11:28.426Z,17.90
2017-08-20T21:14:02.077Z,17.80
2017-08-20T21:16:35.670Z,18.00
2017-08-20T21:19:09.374Z,18.00
2017-08-20T21:21:42.946Z,17.90
2017-08-20T21:24:16.570Z,17.90
2017-08-20T21:26:50.284Z,17.80
2017-08-20T21:29:24.882Z,17.70
2017-08-20T21:31:59.127Z,17.70
2017-08-20T21:34:32.815Z,17.70
2017-08-20T21:37:06.414Z,17.70
2017-08-20T21:39:40.006Z,17.70
2017-08-20T21:42:13.515Z,17.70
2017-08-20T21:44:47.222Z,17.60
2017-08-20T21:47:20.992Z,17.50
2017-08-20T21:49:54.830Z,17.60
2017-08-20T21:52:28.534Z,17.60
2017-08-20T21:55:02.038Z,17.60
2017-08-20T21:57:36.251Z,17.70
2017-08-20T22:00:10.154Z,17.70
2017-08-20T22:02:44.538Z,17.60
2017-08-20T22:05:18.174Z,17.60
2017-08-20T22:07:51.783Z,17.60
2017-08-20T22:10:26.308Z,17.50
2017-08-20T22:13:00.095Z,17.50
2017-08-20T22:15:33.720Z,17.50
2017-08-20T22:18:07.410Z,17.50
2017-08-20T22:20:41.114Z,17.50
2017-08-20T22:23:15.398Z,17.40
2017-08-20T22:25:49.134Z,17.40
2017-08-20T22:28:22.855Z,17.30
2017-08-20T22:30:57.161Z,17.30
2017-08-20T22:33:31.026Z,17.30
2017-08-20T22:36:04.682Z,17.40
2017-08-20T22:38:38.262Z,17.40
2017-08-20T22:41:11.862Z,17.40
2017-08-20T22:43:45.406Z,17.40
2017-08-20T22:46:19.997Z,17.30
2017-08-20T22:48:53.602Z,17.30
2017-08-20T22:51:27.915Z,17.40
2017-08-20T22:54:01.520Z,17.30
2017-08-20T22:56:35.922Z,17.40
2017-08-20T22:59:10.287Z,17.40
2017-08-20T23:01:43.903Z,17.30
2017-08-20T23:04:17.549Z,17.30
2017-08-20T23:06:51.873Z,17.50
2017-08-20T23:09:25.472Z,17.50
2017-08-20T23:11:59.142Z,17.50
2017-08-20T23:14:32.850Z,17.50
2017-08-20T23:17:06.475Z,17.50
2017-08-20T23:19:40.181Z,17.50
2017-08-20T23:22:13.674Z,17.40
2017-08-20T23:24:47.238Z,17.40
2017-08-20T23:27:21.810Z,17.40
2017-08-20T23:29:55.499Z,17.40
2017-08-20T23:32:29.714Z,17.40
2017-08-20T23:35:03.423Z,17.40
2017-08-20T23:37:36.994Z,17.40
2017-08-20T23:40:10.868Z,17.30
2017-08-20T23:42:44.730Z,17.50
2017-08-20T23:45:18.271Z,17.40
2017-08-20T23:47:52.035Z,17.40
2017-08-20T23:50:25.838Z,17.40
2017-08-20T23:53:00.203Z,17.40
2017-08-20T23:55:33.758Z,17.40
2017-08-20T23:58:08.281Z,17.40
